sensor_id;sensor_type;location;lat;lon;timestamp;temperature;humidity
15384;DHT22;7790;53.022;12.968;2022-08-14T00:03:28;24.00;53.10
15384;DHT22;7790;53.022;12.968;2022-08-14T00:07:29;24.00;53.00
15384;DHT22;7790;53.022;12.968;2022-08-14T00:11:30;24.00;53.10
15384;DHT22;7790;53.022;12.968;2022-08-14T00:15:34;24.00;53.00
15384;DHT22;7790;53.022;12.968;2022-08-14T00:19:35;24.00;53.00
15384;DHT22;7790;53.022;12.968;2022-08-14T00:23:36;24.00;53.10
15384;DHT22;7790;53.022;12.968;2022-08-14T00:27:37;24.00;53.00
15384;DHT22;7790;53.022;12.968;2022-08-14T00:31:37;24.00;53.20
15384;DHT22;7790;53.022;12.968;2022-08-14T00:35:38;24.00;53.10
15384;DHT22;7790;53.022;12.968;2022-08-14T00:39:39;24.00;53.10
15384;DHT22;7790;53.022;12.968;2022-08-14T00:43:40;24.00;53.30
15384;DHT22;7790;53.022;12.968;2022-08-14T00:47:42;23.90;53.00
15384;DHT22;7790;53.022;12.968;2022-08-14T00:51:43;23.80;53.50
15384;DHT22;7790;53.022;12.968;2022-08-14T00:55:45;23.70;53.90
15384;DHT22;7790;53.022;12.968;2022-08-14T00:59:47;23.70;53.60
15384;DHT22;7790;53.022;12.968;2022-08-14T01:03:49;23.50;54.20
15384;DHT22;7790;53.022;12.968;2022-08-14T01:07:51;23.50;54.30
15384;DHT22;7790;53.022;12.968;2022-08-14T01:11:53;23.50;54.40
15384;DHT22;7790;53.022;12.968;2022-08-14T01:15:56;23.40;54.50
15384;DHT22;7790;53.022;12.968;2022-08-14T01:19:58;23.30;54.50
15384;DHT22;7790;53.022;12.968;2022-08-14T01:24:18;23.30;54.70
15384;DHT22;7790;53.022;12.968;2022-08-14T01:28:20;23.30;54.80
15384;DHT22;7790;53.022;12.968;2022-08-14T01:32:26;23.20;54.80
15384;DHT22;7790;53.022;12.968;2022-08-14T01:36:29;23.20;55.00
15384;DHT22;7790;53.022;12.968;2022-08-14T01:40:36;23.20;55.10
15384;DHT22;7790;53.022;12.968;2022-08-14T01:44:37;23.10;55.20
15384;DHT22;7790;53.022;12.968;2022-08-14T01:48:38;23.10;55.30
15384;DHT22;7790;53.022;12.968;2022-08-14T01:52:42;23.10;55.40
15384;DHT22;7790;53.022;12.968;2022-08-14T01:56:43;23.10;55.50
15384;DHT22;7790;53.022;12.968;2022-08-14T02:00:44;23.00;55.60
15384;DHT22;7790;53.022;12.968;2022-08-14T02:04:45;23.00;55.80
15384;DHT22;7790;53.022;12.968;2022-08-14T02:08:47;23.00;55.90
15384;DHT22;7790;53.022;12.968;2022-08-14T02:12:48;22.90;55.90
15384;DHT22;7790;53.022;12.968;2022-08-14T02:16:49;22.90;56.00
15384;DHT22;7790;53.022;12.968;2022-08-14T02:20:52;22.90;56.10
15384;DHT22;7790;53.022;12.968;2022-08-14T02:24:53;22.90;56.20
15384;DHT22;7790;53.022;12.968;2022-08-14T02:28:57;22.80;56.20
15384;DHT22;7790;53.022;12.968;2022-08-14T02:33:01;22.70;56.30
15384;DHT22;7790;53.022;12.968;2022-08-14T02:37:05;22.80;56.40
15384;DHT22;7790;53.022;12.968;2022-08-14T02:41:10;22.70;56.40
15384;DHT22;7790;53.022;12.968;2022-08-14T02:45:12;22.70;56.50
15384;DHT22;7790;53.022;12.968;2022-08-14T02:49:14;22.70;56.60
15384;DHT22;7790;53.022;12.968;2022-08-14T02:53:15;22.70;56.70
15384;DHT22;7790;53.022;12.968;2022-08-14T02:57:16;22.70;56.80
15384;DHT22;7790;53.022;12.968;2022-08-14T03:01:19;22.60;56.80
15384;DHT22;7790;53.022;12.968;2022-08-14T03:05:20;22.60;57.00
15384;DHT22;7790;53.022;12.968;2022-08-14T03:09:23;22.60;57.00
15384;DHT22;7790;53.022;12.968;2022-08-14T03:13:24;22.60;57.10
15384;DHT22;7790;53.022;12.968;2022-08-14T03:17:25;22.60;57.20
15384;DHT22;7790;53.022;12.968;2022-08-14T03:21:26;22.60;57.20
15384;DHT22;7790;53.022;12.968;2022-08-14T03:25:30;22.50;57.20
15384;DHT22;7790;53.022;12.968;2022-08-14T03:29:33;22.50;57.30
15384;DHT22;7790;53.022;12.968;2022-08-14T03:33:36;22.50;57.20
15384;DHT22;7790;53.022;12.968;2022-08-14T03:37:40;22.40;57.10
15384;DHT22;7790;53.022;12.968;2022-08-14T03:41:42;22.40;57.20
15384;DHT22;7790;53.022;12.968;2022-08-14T03:45:43;22.40;57.20
15384;DHT22;7790;53.022;12.968;2022-08-14T03:49:44;22.30;57.30
15384;DHT22;7790;53.022;12.968;2022-08-14T03:53:46;22.20;57.30
15384;DHT22;7790;53.022;12.968;2022-08-14T03:57:47;22.10;57.50
15384;DHT22;7790;53.022;12.968;2022-08-14T04:01:49;22.10;57.40
15384;DHT22;7790;53.022;12.968;2022-08-14T04:05:52;22.20;57.50
15384;DHT22;7790;53.022;12.968;2022-08-14T04:09:54;22.10;57.60
15384;DHT22;7790;53.022;12.968;2022-08-14T04:13:55;22.10;57.60
15384;DHT22;7790;53.022;12.968;2022-08-14T04:17:56;22.10;57.70
15384;DHT22;7790;53.022;12.968;2022-08-14T04:21:58;22.10;57.70
15384;DHT22;7790;53.022;12.968;2022-08-14T04:26:00;22.10;57.70
15384;DHT22;7790;53.022;12.968;2022-08-14T04:30:03;22.10;57.80
15384;DHT22;7790;53.022;12.968;2022-08-14T04:34:05;22.00;57.90
15384;DHT22;7790;53.022;12.968;2022-08-14T04:38:07;22.10;57.90
15384;DHT22;7790;53.022;12.968;2022-08-14T04:42:26;22.00;57.90
15384;DHT22;7790;53.022;12.968;2022-08-14T04:46:46;22.00;58.10
15384;DHT22;7790;53.022;12.968;2022-08-14T04:51:11;22.00;58.30
15384;DHT22;7790;53.022;12.968;2022-08-14T04:55:12;22.00;58.30
15384;DHT22;7790;53.022;12.968;2022-08-14T04:59:14;22.00;58.30
15384;DHT22;7790;53.022;12.968;2022-08-14T05:03:23;21.90;58.40
15384;DHT22;7790;53.022;12.968;2022-08-14T05:07:24;21.90;58.40
15384;DHT22;7790;53.022;12.968;2022-08-14T05:11:25;22.00;58.60
15384;DHT22;7790;53.022;12.968;2022-08-14T05:15:26;22.00;58.70
15384;DHT22;7790;53.022;12.968;2022-08-14T05:19:29;22.10;58.80
15384;DHT22;7790;53.022;12.968;2022-08-14T05:23:32;22.20;58.90
15384;DHT22;7790;53.022;12.968;2022-08-14T05:27:34;22.20;58.90
15384;DHT22;7790;53.022;12.968;2022-08-14T05:31:35;22.20;59.10
15384;DHT22;7790;53.022;12.968;2022-08-14T05:35:40;22.30;59.20
15384;DHT22;7790;53.022;12.968;2022-08-14T05:39:41;22.30;59.30
15384;DHT22;7790;53.022;12.968;2022-08-14T05:43:43;22.40;59.30
15384;DHT22;7790;53.022;12.968;2022-08-14T05:47:44;22.40;59.10
15384;DHT22;7790;53.022;12.968;2022-08-14T05:51:45;22.40;59.30
15384;DHT22;7790;53.022;12.968;2022-08-14T05:55:47;22.40;59.20
15384;DHT22;7790;53.022;12.968;2022-08-14T05:59:48;22.50;59.30
15384;DHT22;7790;53.022;12.968;2022-08-14T06:03:49;22.50;59.70
15384;DHT22;7790;53.022;12.968;2022-08-14T06:07:50;22.40;60.30
15384;DHT22;7790;53.022;12.968;2022-08-14T06:11:50;22.50;60.10
15384;DHT22;7790;53.022;12.968;2022-08-14T06:15:51;22.50;59.90
15384;DHT22;7790;53.022;12.968;2022-08-14T06:19:53;22.60;59.90
15384;DHT22;7790;53.022;12.968;2022-08-14T06:23:53;22.60;59.80
15384;DHT22;7790;53.022;12.968;2022-08-14T06:27:54;22.60;59.40
15384;DHT22;7790;53.022;12.968;2022-08-14T06:31:55;22.70;58.70
15384;DHT22;7790;53.022;12.968;2022-08-14T06:35:56;22.70;58.60
15384;DHT22;7790;53.022;12.968;2022-08-14T06:39:57;22.80;58.60
15384;DHT22;7790;53.022;12.968;2022-08-14T06:43:58;22.80;58.50
15384;DHT22;7790;53.022;12.968;2022-08-14T06:47:59;22.80;58.70
15384;DHT22;7790;53.022;12.968;2022-08-14T06:52:03;22.80;58.60
15384;DHT22;7790;53.022;12.968;2022-08-14T06:56:04;22.90;58.30
15384;DHT22;7790;53.022;12.968;2022-08-14T07:00:08;22.90;58.20
15384;DHT22;7790;53.022;12.968;2022-08-14T07:04:09;23.00;58.20
15384;DHT22;7790;53.022;12.968;2022-08-14T07:08:29;23.00;58.00
15384;DHT22;7790;53.022;12.968;2022-08-14T07:12:30;23.00;58.00
15384;DHT22;7790;53.022;12.968;2022-08-14T07:16:32;23.00;57.90
15384;DHT22;7790;53.022;12.968;2022-08-14T07:20:33;23.10;57.90
15384;DHT22;7790;53.022;12.968;2022-08-14T07:24:34;23.10;57.80
15384;DHT22;7790;53.022;12.968;2022-08-14T07:28:37;23.10;57.80
15384;DHT22;7790;53.022;12.968;2022-08-14T07:32:38;23.10;57.60
15384;DHT22;7790;53.022;12.968;2022-08-14T07:36:38;23.10;57.50
15384;DHT22;7790;53.022;12.968;2022-08-14T07:40:39;23.20;57.40
15384;DHT22;7790;53.022;12.968;2022-08-14T07:44:40;23.20;57.40
15384;DHT22;7790;53.022;12.968;2022-08-14T07:48:41;23.20;57.20
15384;DHT22;7790;53.022;12.968;2022-08-14T07:52:45;23.20;56.60
15384;DHT22;7790;53.022;12.968;2022-08-14T07:56:46;23.30;56.60
15384;DHT22;7790;53.022;12.968;2022-08-14T08:00:47;23.30;56.60
15384;DHT22;7790;53.022;12.968;2022-08-14T08:04:50;23.30;57.10
15384;DHT22;7790;53.022;12.968;2022-08-14T08:08:57;23.40;57.60
15384;DHT22;7790;53.022;12.968;2022-08-14T08:13:09;23.40;57.10
15384;DHT22;7790;53.022;12.968;2022-08-14T08:17:10;23.40;56.80
15384;DHT22;7790;53.022;12.968;2022-08-14T08:21:12;23.50;56.80
15384;DHT22;7790;53.022;12.968;2022-08-14T08:25:13;23.50;56.70
15384;DHT22;7790;53.022;12.968;2022-08-14T08:29:19;23.50;56.80
15384;DHT22;7790;53.022;12.968;2022-08-14T08:33:22;23.60;56.80
15384;DHT22;7790;53.022;12.968;2022-08-14T08:37:23;23.60;56.90
15384;DHT22;7790;53.022;12.968;2022-08-14T08:41:24;23.60;57.10
15384;DHT22;7790;53.022;12.968;2022-08-14T08:45:26;23.60;57.10
15384;DHT22;7790;53.022;12.968;2022-08-14T08:49:41;23.70;57.10
15384;DHT22;7790;53.022;12.968;2022-08-14T08:53:42;23.70;56.90
15384;DHT22;7790;53.022;12.968;2022-08-14T08:57:46;23.70;56.80
15384;DHT22;7790;53.022;12.968;2022-08-14T09:01:53;23.70;56.70
15384;DHT22;7790;53.022;12.968;2022-08-14T09:06:01;23.80;56.80
15384;DHT22;7790;53.022;12.968;2022-08-14T09:10:03;23.80;56.60
15384;DHT22;7790;53.022;12.968;2022-08-14T09:14:04;23.80;56.50
15384;DHT22;7790;53.022;12.968;2022-08-14T09:18:07;23.80;56.30
15384;DHT22;7790;53.022;12.968;2022-08-14T09:22:08;23.80;56.70
15384;DHT22;7790;53.022;12.968;2022-08-14T09:26:10;23.90;56.20
15384;DHT22;7790;53.022;12.968;2022-08-14T09:30:11;23.90;56.10
15384;DHT22;7790;53.022;12.968;2022-08-14T09:34:28;23.90;56.00
15384;DHT22;7790;53.022;12.968;2022-08-14T09:39:01;23.90;56.00
15384;DHT22;7790;53.022;12.968;2022-08-14T09:47:45;24.00;55.90
15384;DHT22;7790;53.022;12.968;2022-08-14T09:51:46;24.00;55.80
15384;DHT22;7790;53.022;12.968;2022-08-14T09:55:57;24.00;55.80
15384;DHT22;7790;53.022;12.968;2022-08-14T10:00:09;24.00;55.70
15384;DHT22;7790;53.022;12.968;2022-08-14T10:04:22;24.00;55.60
15384;DHT22;7790;53.022;12.968;2022-08-14T10:08:24;24.10;55.60
15384;DHT22;7790;53.022;12.968;2022-08-14T10:12:46;24.10;56.00
15384;DHT22;7790;53.022;12.968;2022-08-14T10:16:53;24.10;55.50
15384;DHT22;7790;53.022;12.968;2022-08-14T10:20:56;24.10;55.30
15384;DHT22;7790;53.022;12.968;2022-08-14T10:24:57;24.10;55.30
15384;DHT22;7790;53.022;12.968;2022-08-14T10:29:10;24.20;55.40
15384;DHT22;7790;53.022;12.968;2022-08-14T10:33:26;24.20;55.40
15384;DHT22;7790;53.022;12.968;2022-08-14T10:37:37;24.20;55.30
15384;DHT22;7790;53.022;12.968;2022-08-14T10:41:40;24.20;55.50
15384;DHT22;7790;53.022;12.968;2022-08-14T10:45:58;24.30;55.50
15384;DHT22;7790;53.022;12.968;2022-08-14T10:50:02;24.30;55.40
15384;DHT22;7790;53.022;12.968;2022-08-14T10:54:07;24.30;55.40
15384;DHT22;7790;53.022;12.968;2022-08-14T10:58:12;24.30;55.30
15384;DHT22;7790;53.022;12.968;2022-08-14T11:06:21;24.40;55.40
15384;DHT22;7790;53.022;12.968;2022-08-14T11:10:25;24.50;55.40
15384;DHT22;7790;53.022;12.968;2022-08-14T11:14:26;24.50;55.40
15384;DHT22;7790;53.022;12.968;2022-08-14T11:18:29;24.50;55.30
15384;DHT22;7790;53.022;12.968;2022-08-14T11:22:31;24.50;55.40
15384;DHT22;7790;53.022;12.968;2022-08-14T11:26:33;24.50;55.20
15384;DHT22;7790;53.022;12.968;2022-08-14T11:30:38;24.50;55.30
15384;DHT22;7790;53.022;12.968;2022-08-14T11:34:41;24.60;55.30
15384;DHT22;7790;53.022;12.968;2022-08-14T11:38:44;24.60;55.20
15384;DHT22;7790;53.022;12.968;2022-08-14T11:42:46;24.60;55.20
15384;DHT22;7790;53.022;12.968;2022-08-14T11:46:48;24.60;55.30
15384;DHT22;7790;53.022;12.968;2022-08-14T11:50:50;24.60;55.20
15384;DHT22;7790;53.022;12.968;2022-08-14T11:54:57;24.60;55.30
15384;DHT22;7790;53.022;12.968;2022-08-14T11:59:00;24.60;55.20
15384;DHT22;7790;53.022;12.968;2022-08-14T12:03:00;24.60;55.10
15384;DHT22;7790;53.022;12.968;2022-08-14T12:07:06;24.60;55.20
15384;DHT22;7790;53.022;12.968;2022-08-14T12:11:09;24.60;55.00
15384;DHT22;7790;53.022;12.968;2022-08-14T12:15:12;24.60;55.10
15384;DHT22;7790;53.022;12.968;2022-08-14T12:19:13;24.70;55.10
15384;DHT22;7790;53.022;12.968;2022-08-14T12:23:24;24.70;54.80
15384;DHT22;7790;53.022;12.968;2022-08-14T12:27:39;24.70;54.60
15384;DHT22;7790;53.022;12.968;2022-08-14T12:31:43;24.80;54.50
15384;DHT22;7790;53.022;12.968;2022-08-14T12:35:44;24.80;54.50
15384;DHT22;7790;53.022;12.968;2022-08-14T12:39:45;24.90;54.20
15384;DHT22;7790;53.022;12.968;2022-08-14T12:43:53;24.90;54.30
15384;DHT22;7790;53.022;12.968;2022-08-14T12:47:59;24.90;54.20
15384;DHT22;7790;53.022;12.968;2022-08-14T12:52:04;25.00;54.20
15384;DHT22;7790;53.022;12.968;2022-08-14T12:56:08;25.00;54.20
15384;DHT22;7790;53.022;12.968;2022-08-14T13:00:16;25.00;54.30
15384;DHT22;7790;53.022;12.968;2022-08-14T13:04:18;25.00;54.30
15384;DHT22;7790;53.022;12.968;2022-08-14T13:08:21;25.10;54.00
15384;DHT22;7790;53.022;12.968;2022-08-14T13:12:23;25.10;54.20
15384;DHT22;7790;53.022;12.968;2022-08-14T13:16:28;25.10;54.30
15384;DHT22;7790;53.022;12.968;2022-08-14T13:20:30;25.10;54.30
15384;DHT22;7790;53.022;12.968;2022-08-14T13:24:30;25.10;54.30
15384;DHT22;7790;53.022;12.968;2022-08-14T13:28:32;25.10;54.20
15384;DHT22;7790;53.022;12.968;2022-08-14T13:32:37;25.10;54.30
15384;DHT22;7790;53.022;12.968;2022-08-14T13:36:44;25.10;54.30
15384;DHT22;7790;53.022;12.968;2022-08-14T13:40:45;25.20;54.30
15384;DHT22;7790;53.022;12.968;2022-08-14T13:44:53;25.20;54.40
15384;DHT22;7790;53.022;12.968;2022-08-14T13:48:54;25.20;54.30
15384;DHT22;7790;53.022;12.968;2022-08-14T13:52:57;25.20;54.30
15384;DHT22;7790;53.022;12.968;2022-08-14T13:57:00;25.20;54.50
15384;DHT22;7790;53.022;12.968;2022-08-14T14:01:03;25.20;54.20
15384;DHT22;7790;53.022;12.968;2022-08-14T14:05:08;25.20;54.30
15384;DHT22;7790;53.022;12.968;2022-08-14T14:09:09;25.20;54.30
15384;DHT22;7790;53.022;12.968;2022-08-14T14:13:14;25.20;54.30
15384;DHT22;7790;53.022;12.968;2022-08-14T14:17:15;25.20;54.30
15384;DHT22;7790;53.022;12.968;2022-08-14T14:21:18;25.20;54.40
15384;DHT22;7790;53.022;12.968;2022-08-14T14:25:20;25.20;54.30
15384;DHT22;7790;53.022;12.968;2022-08-14T14:29:22;25.20;54.30
15384;DHT22;7790;53.022;12.968;2022-08-14T14:33:25;25.20;54.30
15384;DHT22;7790;53.022;12.968;2022-08-14T14:37:27;25.20;54.20
15384;DHT22;7790;53.022;12.968;2022-08-14T14:41:31;25.20;54.20
15384;DHT22;7790;53.022;12.968;2022-08-14T14:45:32;25.20;54.20
15384;DHT22;7790;53.022;12.968;2022-08-14T14:49:35;25.20;54.20
15384;DHT22;7790;53.022;12.968;2022-08-14T14:53:39;25.20;54.70
15384;DHT22;7790;53.022;12.968;2022-08-14T14:57:42;25.20;54.20
15384;DHT22;7790;53.022;12.968;2022-08-14T15:01:47;25.20;54.20
15384;DHT22;7790;53.022;12.968;2022-08-14T15:05:48;25.20;54.10
15384;DHT22;7790;53.022;12.968;2022-08-14T15:09:52;25.20;54.20
15384;DHT22;7790;53.022;12.968;2022-08-14T15:13:53;25.20;54.30
15384;DHT22;7790;53.022;12.968;2022-08-14T15:17:54;25.20;54.40
15384;DHT22;7790;53.022;12.968;2022-08-14T15:21:57;25.20;54.40
15384;DHT22;7790;53.022;12.968;2022-08-14T15:25:59;25.20;54.40
15384;DHT22;7790;53.022;12.968;2022-08-14T15:30:00;25.20;54.40
15384;DHT22;7790;53.022;12.968;2022-08-14T15:34:03;25.30;54.40
15384;DHT22;7790;53.022;12.968;2022-08-14T15:38:14;25.30;54.20
15384;DHT22;7790;53.022;12.968;2022-08-14T15:42:15;25.30;54.30
15384;DHT22;7790;53.022;12.968;2022-08-14T15:46:16;25.30;54.20
15384;DHT22;7790;53.022;12.968;2022-08-14T15:50:18;25.30;54.20
15384;DHT22;7790;53.022;12.968;2022-08-14T15:54:19;25.30;54.20
15384;DHT22;7790;53.022;12.968;2022-08-14T15:58:21;25.30;54.00
15384;DHT22;7790;53.022;12.968;2022-08-14T16:02:23;25.30;54.10
15384;DHT22;7790;53.022;12.968;2022-08-14T16:06:26;25.30;54.10
15384;DHT22;7790;53.022;12.968;2022-08-14T16:10:29;25.30;54.20
15384;DHT22;7790;53.022;12.968;2022-08-14T16:14:30;25.30;54.10
15384;DHT22;7790;53.022;12.968;2022-08-14T16:18:36;25.30;54.10
15384;DHT22;7790;53.022;12.968;2022-08-14T16:22:39;25.30;54.00
15384;DHT22;7790;53.022;12.968;2022-08-14T16:26:41;25.30;53.80
15384;DHT22;7790;53.022;12.968;2022-08-14T16:30:42;25.30;53.90
15384;DHT22;7790;53.022;12.968;2022-08-14T16:34:48;25.40;53.90
15384;DHT22;7790;53.022;12.968;2022-08-14T16:38:51;25.40;54.00
15384;DHT22;7790;53.022;12.968;2022-08-14T16:42:54;25.40;54.30
15384;DHT22;7790;53.022;12.968;2022-08-14T16:46:57;25.40;54.80
15384;DHT22;7790;53.022;12.968;2022-08-14T16:51:01;25.30;54.60
15384;DHT22;7790;53.022;12.968;2022-08-14T16:55:04;25.30;54.70
15384;DHT22;7790;53.022;12.968;2022-08-14T16:59:14;25.20;54.60
15384;DHT22;7790;53.022;12.968;2022-08-14T17:03:15;25.20;54.60
15384;DHT22;7790;53.022;12.968;2022-08-14T17:07:16;25.20;54.70
15384;DHT22;7790;53.022;12.968;2022-08-14T17:11:17;25.10;54.70
15384;DHT22;7790;53.022;12.968;2022-08-14T17:15:17;25.10;54.80
15384;DHT22;7790;53.022;12.968;2022-08-14T17:19:18;25.00;54.70
15384;DHT22;7790;53.022;12.968;2022-08-14T17:23:21;25.00;54.70
15384;DHT22;7790;53.022;12.968;2022-08-14T17:27:22;25.00;54.80
15384;DHT22;7790;53.022;12.968;2022-08-14T17:31:30;25.00;54.80
15384;DHT22;7790;53.022;12.968;2022-08-14T17:35:31;25.00;54.80
15384;DHT22;7790;53.022;12.968;2022-08-14T17:39:33;25.00;54.90
15384;DHT22;7790;53.022;12.968;2022-08-14T17:43:35;25.00;54.90
15384;DHT22;7790;53.022;12.968;2022-08-14T17:47:40;25.00;54.90
15384;DHT22;7790;53.022;12.968;2022-08-14T17:51:58;24.90;54.80
15384;DHT22;7790;53.022;12.968;2022-08-14T17:56:06;24.90;54.80
15384;DHT22;7790;53.022;12.968;2022-08-14T18:00:14;24.90;54.80
15384;DHT22;7790;53.022;12.968;2022-08-14T18:04:16;24.90;54.80
15384;DHT22;7790;53.022;12.968;2022-08-14T18:08:18;24.90;54.80
15384;DHT22;7790;53.022;12.968;2022-08-14T18:12:20;24.90;54.80
15384;DHT22;7790;53.022;12.968;2022-08-14T18:16:22;25.00;54.20
15384;DHT22;7790;53.022;12.968;2022-08-14T18:20:23;24.90;53.80
15384;DHT22;7790;53.022;12.968;2022-08-14T18:24:26;25.00;53.80
15384;DHT22;7790;53.022;12.968;2022-08-14T18:28:31;25.00;53.60
15384;DHT22;7790;53.022;12.968;2022-08-14T18:36:47;24.90;53.40
15384;DHT22;7790;53.022;12.968;2022-08-14T18:40:50;25.00;53.30
15384;DHT22;7790;53.022;12.968;2022-08-14T18:49:15;24.90;53.30
15384;DHT22;7790;53.022;12.968;2022-08-14T18:53:17;25.00;53.30
15384;DHT22;7790;53.022;12.968;2022-08-14T18:57:18;24.90;53.20
15384;DHT22;7790;53.022;12.968;2022-08-14T19:01:24;24.90;53.30
15384;DHT22;7790;53.022;12.968;2022-08-14T19:10:04;24.90;53.30
15384;DHT22;7790;53.022;12.968;2022-08-14T19:14:06;24.90;53.30
15384;DHT22;7790;53.022;12.968;2022-08-14T19:18:34;24.90;53.20
15384;DHT22;7790;53.022;12.968;2022-08-14T19:22:38;24.90;53.20
15384;DHT22;7790;53.022;12.968;2022-08-14T19:26:42;24.80;53.10
15384;DHT22;7790;53.022;12.968;2022-08-14T19:30:43;24.80;53.10
15384;DHT22;7790;53.022;12.968;2022-08-14T19:34:45;24.80;53.10
15384;DHT22;7790;53.022;12.968;2022-08-14T19:38:54;24.80;53.00
15384;DHT22;7790;53.022;12.968;2022-08-14T19:42:57;24.80;52.90
15384;DHT22;7790;53.022;12.968;2022-08-14T19:46:58;24.80;52.90
15384;DHT22;7790;53.022;12.968;2022-08-14T19:51:00;24.80;52.70
15384;DHT22;7790;53.022;12.968;2022-08-14T19:55:16;24.80;52.80
15384;DHT22;7790;53.022;12.968;2022-08-14T19:59:17;24.70;53.00
15384;DHT22;7790;53.022;12.968;2022-08-14T20:03:19;24.70;53.10
15384;DHT22;7790;53.022;12.968;2022-08-14T20:07:31;24.70;52.70
15384;DHT22;7790;53.022;12.968;2022-08-14T20:11:34;24.70;52.50
15384;DHT22;7790;53.022;12.968;2022-08-14T20:15:38;24.70;52.80
15384;DHT22;7790;53.022;12.968;2022-08-14T20:19:40;24.70;52.50
15384;DHT22;7790;53.022;12.968;2022-08-14T20:23:40;24.70;52.50
15384;DHT22;7790;53.022;12.968;2022-08-14T20:27:43;24.70;52.40
15384;DHT22;7790;53.022;12.968;2022-08-14T20:31:45;24.70;52.50
15384;DHT22;7790;53.022;12.968;2022-08-14T20:35:48;24.70;52.40
15384;DHT22;7790;53.022;12.968;2022-08-14T20:39:49;24.60;52.50
15384;DHT22;7790;53.022;12.968;2022-08-14T20:43:50;24.60;52.60
15384;DHT22;7790;53.022;12.968;2022-08-14T20:48:09;24.60;52.60
15384;DHT22;7790;53.022;12.968;2022-08-14T20:52:10;24.50;52.80
15384;DHT22;7790;53.022;12.968;2022-08-14T20:56:20;24.50;52.90
15384;DHT22;7790;53.022;12.968;2022-08-14T21:00:41;24.50;53.00
15384;DHT22;7790;53.022;12.968;2022-08-14T21:04:57;24.50;53.10
15384;DHT22;7790;53.022;12.968;2022-08-14T21:09:02;24.40;53.10
15384;DHT22;7790;53.022;12.968;2022-08-14T21:13:04;24.40;53.40
15384;DHT22;7790;53.022;12.968;2022-08-14T21:17:05;24.30;53.40
15384;DHT22;7790;53.022;12.968;2022-08-14T21:21:08;24.40;53.50
15384;DHT22;7790;53.022;12.968;2022-08-14T21:25:11;24.40;53.60
15384;DHT22;7790;53.022;12.968;2022-08-14T21:29:12;24.40;53.60
15384;DHT22;7790;53.022;12.968;2022-08-14T21:33:13;24.40;53.70
15384;DHT22;7790;53.022;12.968;2022-08-14T21:37:15;24.30;53.60
15384;DHT22;7790;53.022;12.968;2022-08-14T21:41:16;24.30;53.70
15384;DHT22;7790;53.022;12.968;2022-08-14T21:45:27;24.30;53.90
15384;DHT22;7790;53.022;12.968;2022-08-14T21:49:29;24.30;53.90
15384;DHT22;7790;53.022;12.968;2022-08-14T21:53:31;24.30;53.90
15384;DHT22;7790;53.022;12.968;2022-08-14T21:57:33;24.30;53.80
15384;DHT22;7790;53.022;12.968;2022-08-14T22:01:35;24.30;53.90
15384;DHT22;7790;53.022;12.968;2022-08-14T22:05:38;24.30;53.90
15384;DHT22;7790;53.022;12.968;2022-08-14T22:09:39;24.30;54.00
15384;DHT22;7790;53.022;12.968;2022-08-14T22:13:40;24.30;54.10
15384;DHT22;7790;53.022;12.968;2022-08-14T22:17:42;24.30;54.10
15384;DHT22;7790;53.022;12.968;2022-08-14T22:21:45;24.30;54.10
15384;DHT22;7790;53.022;12.968;2022-08-14T22:25:47;24.30;54.20
15384;DHT22;7790;53.022;12.968;2022-08-14T22:29:47;24.20;54.20
15384;DHT22;7790;53.022;12.968;2022-08-14T22:33:50;24.20;54.40
15384;DHT22;7790;53.022;12.968;2022-08-14T22:37:55;24.20;54.50
15384;DHT22;7790;53.022;12.968;2022-08-14T22:41:56;24.20;54.60
15384;DHT22;7790;53.022;12.968;2022-08-14T22:45:58;24.20;54.70
15384;DHT22;7790;53.022;12.968;2022-08-14T22:49:58;24.20;54.90
15384;DHT22;7790;53.022;12.968;2022-08-14T22:53:59;24.10;55.10
15384;DHT22;7790;53.022;12.968;2022-08-14T22:58:00;24.10;55.20
15384;DHT22;7790;53.022;12.968;2022-08-14T23:02:24;24.10;55.30
15384;DHT22;7790;53.022;12.968;2022-08-14T23:06:26;24.00;55.10
15384;DHT22;7790;53.022;12.968;2022-08-14T23:10:27;24.00;55.10
15384;DHT22;7790;53.022;12.968;2022-08-14T23:14:29;24.00;55.20
15384;DHT22;7790;53.022;12.968;2022-08-14T23:18:30;23.90;55.40
15384;DHT22;7790;53.022;12.968;2022-08-14T23:22:31;23.90;55.30
15384;DHT22;7790;53.022;12.968;2022-08-14T23:26:32;23.90;55.30
15384;DHT22;7790;53.022;12.968;2022-08-14T23:30:35;23.90;55.60
15384;DHT22;7790;53.022;12.968;2022-08-14T23:34:36;23.90;55.60
15384;DHT22;7790;53.022;12.968;2022-08-14T23:38:37;23.80;55.40
15384;DHT22;7790;53.022;12.968;2022-08-14T23:42:38;23.80;55.40
15384;DHT22;7790;53.022;12.968;2022-08-14T23:46:40;23.80;55.40
15384;DHT22;7790;53.022;12.968;2022-08-14T23:50:43;23.80;55.50
15384;DHT22;7790;53.022;12.968;2022-08-14T23:54:44;23.80;55.50
15384;DHT22;7790;53.022;12.968;2022-08-14T23:58:45;23.70;55.70
